sensor_id;sensor_type;location;lat;lon;timestamp;pressure;altitude;pressure_sealevel;temperature;humidity
26436;BME280;15351;52.408;16.826;2023-02-01T00:00:11;99992.02;;;5.22;82.93
26436;BME280;15351;52.408;16.826;2023-02-01T00:03:02;99988.85;;;5.23;82.92
26436;BME280;15351;52.408;16.826;2023-02-01T00:05:34;99980.95;;;5.25;82.75
26436;BME280;15351;52.408;16.826;2023-02-01T00:08:08;99981.05;;;5.26;82.63
26436;BME280;15351;52.408;16.826;2023-02-01T00:10:35;99985.89;;;5.27;82.50
26436;BME280;15351;52.408;16.826;2023-02-01T00:13:04;99980.20;;;5.29;82.47
26436;BME280;15351;52.408;16.826;2023-02-01T00:15:34;99984.41;;;5.31;82.01
26436;BME280;15351;52.408;16.826;2023-02-01T00:18:03;99984.61;;;5.33;82.08
26436;BME280;15351;52.408;16.826;2023-02-01T00:20:30;99991.47;;;5.34;81.77
26436;BME280;15351;52.408;16.826;2023-02-01T00:23:04;99994.11;;;5.34;81.82
26436;BME280;15351;52.408;16.826;2023-02-01T00:25:31;99998.63;;;5.34;81.74
26436;BME280;15351;52.408;16.826;2023-02-01T00:27:58;99998.45;;;5.32;81.46
26436;BME280;15351;52.408;16.826;2023-02-01T00:30:28;99988.38;;;5.26;81.48
26436;BME280;15351;52.408;16.826;2023-02-01T00:32:57;99991.55;;;5.33;81.65
26436;BME280;15351;52.408;16.826;2023-02-01T00:35:26;99985.71;;;5.41;81.35
26436;BME280;15351;52.408;16.826;2023-02-01T00:38:03;99989.45;;;5.36;81.02
26436;BME280;15351;52.408;16.826;2023-02-01T00:40:35;99985.89;;;5.29;80.74
26436;BME280;15351;52.408;16.826;2023-02-01T00:43:24;99990.19;;;5.27;81.15
26436;BME280;15351;52.408;16.826;2023-02-01T00:46:02;99996.58;;;5.28;80.98
26436;BME280;15351;52.408;16.826;2023-02-01T00:48:55;99997.47;;;5.26;81.05
26436;BME280;15351;52.408;16.826;2023-02-01T00:52:09;99992.65;;;5.26;81.03
26436;BME280;15351;52.408;16.826;2023-02-01T00:55:04;100003.80;;;5.23;80.95
26436;BME280;15351;52.408;16.826;2023-02-01T00:57:36;100000.66;;;5.24;80.89
26436;BME280;15351;52.408;16.826;2023-02-01T01:00:14;100001.00;;;5.26;80.91
26436;BME280;15351;52.408;16.826;2023-02-01T01:02:44;100002.51;;;5.25;80.71
26436;BME280;15351;52.408;16.826;2023-02-01T01:05:20;100007.30;;;5.27;80.93
26436;BME280;15351;52.408;16.826;2023-02-01T01:07:53;100007.65;;;5.29;80.50
26436;BME280;15351;52.408;16.826;2023-02-01T01:10:23;100002.57;;;5.30;80.45
26436;BME280;15351;52.408;16.826;2023-02-01T01:12:58;100008.23;;;5.30;80.16
26436;BME280;15351;52.408;16.826;2023-02-01T01:15:39;100008.54;;;5.29;80.11
26436;BME280;15351;52.408;16.826;2023-02-01T01:18:14;100006.43;;;5.24;80.09
26436;BME280;15351;52.408;16.826;2023-02-01T01:20:47;100009.33;;;5.22;80.35
26436;BME280;15351;52.408;16.826;2023-02-01T01:23:55;100006.95;;;5.22;80.22
26436;BME280;15351;52.408;16.826;2023-02-01T01:26:29;100009.38;;;5.19;80.23
26436;BME280;15351;52.408;16.826;2023-02-01T01:29:30;100009.82;;;5.17;80.21
26436;BME280;15351;52.408;16.826;2023-02-01T01:32:02;100012.42;;;5.15;80.28
26436;BME280;15351;52.408;16.826;2023-02-01T01:34:52;100003.75;;;5.17;80.36
26436;BME280;15351;52.408;16.826;2023-02-01T01:37:27;100002.29;;;5.19;80.27
26436;BME280;15351;52.408;16.826;2023-02-01T01:39:55;100008.02;;;5.20;80.23
26436;BME280;15351;52.408;16.826;2023-02-01T01:42:25;100012.93;;;5.21;80.16
26436;BME280;15351;52.408;16.826;2023-02-01T01:47:59;100012.92;;;5.25;80.19
26436;BME280;15351;52.408;16.826;2023-02-01T01:50:35;100017.09;;;5.27;80.11
26436;BME280;15351;52.408;16.826;2023-02-01T01:53:27;100003.34;;;5.35;79.91
26436;BME280;15351;52.408;16.826;2023-02-01T01:55:58;100001.91;;;5.36;79.82
26436;BME280;15351;52.408;16.826;2023-02-01T01:58:29;99999.50;;;5.36;79.64
26436;BME280;15351;52.408;16.826;2023-02-01T02:00:59;100003.48;;;5.35;79.46
26436;BME280;15351;52.408;16.826;2023-02-01T02:03:36;100008.13;;;5.38;79.70
26436;BME280;15351;52.408;16.826;2023-02-01T02:06:19;100009.64;;;5.41;79.43
26436;BME280;15351;52.408;16.826;2023-02-01T02:08:58;100005.75;;;5.44;79.22
26436;BME280;15351;52.408;16.826;2023-02-01T02:11:25;100000.98;;;5.45;79.03
26436;BME280;15351;52.408;16.826;2023-02-01T02:13:54;100001.02;;;5.45;79.09
26436;BME280;15351;52.408;16.826;2023-02-01T02:28:05;99997.79;;;5.38;78.41
26436;BME280;15351;52.408;16.826;2023-02-01T02:33:46;99997.79;;;5.43;78.45
26436;BME280;15351;52.408;16.826;2023-02-01T02:36:59;99993.60;;;5.43;78.17
26436;BME280;15351;52.408;16.826;2023-02-01T02:43:10;99995.50;;;5.36;77.82
26436;BME280;15351;52.408;16.826;2023-02-01T02:46:05;99995.29;;;5.35;77.95
26436;BME280;15351;52.408;16.826;2023-02-01T02:49:25;99989.48;;;5.32;77.80
26436;BME280;15351;52.408;16.826;2023-02-01T02:52:45;99991.13;;;5.30;77.74
26436;BME280;15351;52.408;16.826;2023-02-01T02:55:36;99988.48;;;5.32;77.99
26436;BME280;15351;52.408;16.826;2023-02-01T02:58:19;99986.30;;;5.36;77.56
26436;BME280;15351;52.408;16.826;2023-02-01T03:01:18;99987.41;;;5.32;77.71
26436;BME280;15351;52.408;16.826;2023-02-01T03:04:24;99984.77;;;5.31;77.67
26436;BME280;15351;52.408;16.826;2023-02-01T03:07:08;99988.27;;;5.30;77.76
26436;BME280;15351;52.408;16.826;2023-02-01T03:09:44;99987.98;;;5.31;77.61
26436;BME280;15351;52.408;16.826;2023-02-01T03:12:40;99987.86;;;5.34;77.32
26436;BME280;15351;52.408;16.826;2023-02-01T03:16:08;99983.95;;;5.34;77.25
26436;BME280;15351;52.408;16.826;2023-02-01T03:19:18;99986.67;;;5.32;77.33
26436;BME280;15351;52.408;16.826;2023-02-01T03:22:04;99984.13;;;5.31;77.18
26436;BME280;15351;52.408;16.826;2023-02-01T03:24:55;99988.45;;;5.34;77.36
26436;BME280;15351;52.408;16.826;2023-02-01T03:28:02;99983.09;;;5.35;77.20
26436;BME280;15351;52.408;16.826;2023-02-01T03:30:40;99974.84;;;5.36;77.31
26436;BME280;15351;52.408;16.826;2023-02-01T03:33:32;99974.24;;;5.35;77.25
26436;BME280;15351;52.408;16.826;2023-02-01T03:36:18;99974.05;;;5.37;76.96
26436;BME280;15351;52.408;16.826;2023-02-01T03:39:06;99970.71;;;5.33;76.74
26436;BME280;15351;52.408;16.826;2023-02-01T03:45:27;99974.74;;;5.30;76.90
26436;BME280;15351;52.408;16.826;2023-02-01T03:47:44;99975.63;;;5.28;76.89
26436;BME280;15351;52.408;16.826;2023-02-01T03:50:19;99966.61;;;5.31;76.98
26436;BME280;15351;52.408;16.826;2023-02-01T03:52:59;99965.89;;;5.31;77.03
26436;BME280;15351;52.408;16.826;2023-02-01T03:55:36;99963.09;;;5.33;77.02
26436;BME280;15351;52.408;16.826;2023-02-01T04:00:38;99968.25;;;5.26;77.08
26436;BME280;15351;52.408;16.826;2023-02-01T04:03:08;99972.15;;;5.31;76.88
26436;BME280;15351;52.408;16.826;2023-02-01T04:05:47;99972.98;;;5.37;76.95
26436;BME280;15351;52.408;16.826;2023-02-01T04:08:34;99962.63;;;5.39;76.83
26436;BME280;15351;52.408;16.826;2023-02-01T04:11:02;99963.27;;;5.39;76.75
26436;BME280;15351;52.408;16.826;2023-02-01T04:13:30;99960.85;;;5.44;76.66
26436;BME280;15351;52.408;16.826;2023-02-01T04:15:59;99956.12;;;5.46;76.36
26436;BME280;15351;52.408;16.826;2023-02-01T04:18:29;99959.83;;;5.45;75.91
26436;BME280;15351;52.408;16.826;2023-02-01T04:21:09;99959.66;;;5.41;75.95
26436;BME280;15351;52.408;16.826;2023-02-01T04:23:36;99956.75;;;5.40;75.89
26436;BME280;15351;52.408;16.826;2023-02-01T04:26:28;99957.45;;;5.39;75.98
26436;BME280;15351;52.408;16.826;2023-02-01T04:28:57;99961.06;;;5.40;75.84
26436;BME280;15351;52.408;16.826;2023-02-01T04:31:24;99959.78;;;5.42;75.64
26436;BME280;15351;52.408;16.826;2023-02-01T04:33:57;99962.95;;;5.42;75.75
26436;BME280;15351;52.408;16.826;2023-02-01T04:36:29;99958.45;;;5.46;76.10
26436;BME280;15351;52.408;16.826;2023-02-01T04:38:56;99961.09;;;5.50;75.97
26436;BME280;15351;52.408;16.826;2023-02-01T04:41:25;99961.67;;;5.52;75.75
26436;BME280;15351;52.408;16.826;2023-02-01T04:43:53;99956.70;;;5.54;75.28
26436;BME280;15351;52.408;16.826;2023-02-01T04:46:20;99958.91;;;5.53;75.24
26436;BME280;15351;52.408;16.826;2023-02-01T04:48:47;99960.14;;;5.49;75.12
26436;BME280;15351;52.408;16.826;2023-02-01T04:51:14;99958.83;;;5.48;75.27
26436;BME280;15351;52.408;16.826;2023-02-01T04:53:42;99963.92;;;5.49;75.13
26436;BME280;15351;52.408;16.826;2023-02-01T04:56:12;99960.08;;;5.52;75.34
26436;BME280;15351;52.408;16.826;2023-02-01T04:58:53;99951.41;;;5.57;75.02
26436;BME280;15351;52.408;16.826;2023-02-01T05:01:28;99955.83;;;5.57;75.23
26436;BME280;15351;52.408;16.826;2023-02-01T05:07:13;99958.41;;;5.60;75.14
26436;BME280;15351;52.408;16.826;2023-02-01T05:10:04;99955.43;;;5.61;75.16
26436;BME280;15351;52.408;16.826;2023-02-01T05:12:45;99953.52;;;5.64;74.82
26436;BME280;15351;52.408;16.826;2023-02-01T05:15:32;99950.52;;;5.65;74.93
26436;BME280;15351;52.408;16.826;2023-02-01T05:18:38;99947.41;;;5.68;74.98
26436;BME280;15351;52.408;16.826;2023-02-01T05:21:08;99952.14;;;5.69;74.96
26436;BME280;15351;52.408;16.826;2023-02-01T05:23:36;99948.40;;;5.72;74.79
26436;BME280;15351;52.408;16.826;2023-02-01T05:26:24;99943.79;;;5.72;74.56
26436;BME280;15351;52.408;16.826;2023-02-01T05:28:55;99953.65;;;5.71;74.75
26436;BME280;15351;52.408;16.826;2023-02-01T05:31:27;99952.88;;;5.70;74.68
26436;BME280;15351;52.408;16.826;2023-02-01T05:34:11;99957.59;;;5.70;74.71
26436;BME280;15351;52.408;16.826;2023-02-01T05:36:40;99954.38;;;5.71;74.89
26436;BME280;15351;52.408;16.826;2023-02-01T05:39:09;99952.90;;;5.73;74.43
26436;BME280;15351;52.408;16.826;2023-02-01T05:41:37;99949.85;;;5.73;74.43
26436;BME280;15351;52.408;16.826;2023-02-01T05:44:15;99948.34;;;5.71;74.40
26436;BME280;15351;52.408;16.826;2023-02-01T05:46:46;99951.33;;;5.68;74.51
26436;BME280;15351;52.408;16.826;2023-02-01T05:49:22;99950.23;;;5.65;74.56
26436;BME280;15351;52.408;16.826;2023-02-01T05:51:58;99951.14;;;5.63;74.72
26436;BME280;15351;52.408;16.826;2023-02-01T05:54:33;99952.18;;;5.65;74.59
26436;BME280;15351;52.408;16.826;2023-02-01T05:57:09;99954.02;;;5.68;74.34
26436;BME280;15351;52.408;16.826;2023-02-01T05:59:36;99954.96;;;5.66;74.04
26436;BME280;15351;52.408;16.826;2023-02-01T06:02:12;99956.05;;;5.62;74.47
26436;BME280;15351;52.408;16.826;2023-02-01T06:04:51;99960.55;;;5.61;74.55
26436;BME280;15351;52.408;16.826;2023-02-01T06:07:24;99966.02;;;5.58;74.44
26436;BME280;15351;52.408;16.826;2023-02-01T06:10:13;99965.55;;;5.56;74.43
26436;BME280;15351;52.408;16.826;2023-02-01T06:12:43;99965.23;;;5.54;74.63
26436;BME280;15351;52.408;16.826;2023-02-01T06:15:33;99962.67;;;5.55;74.81
26436;BME280;15351;52.408;16.826;2023-02-01T06:18:12;99960.73;;;5.58;74.88
26436;BME280;15351;52.408;16.826;2023-02-01T06:20:55;99964.48;;;5.65;74.77
26436;BME280;15351;52.408;16.826;2023-02-01T06:23:25;99962.05;;;5.66;74.64
26436;BME280;15351;52.408;16.826;2023-02-01T06:26:00;99963.36;;;5.65;74.50
26436;BME280;15351;52.408;16.826;2023-02-01T06:28:28;99970.29;;;5.60;74.76
26436;BME280;15351;52.408;16.826;2023-02-01T06:31:08;99971.81;;;5.59;74.94
26436;BME280;15351;52.408;16.826;2023-02-01T06:33:54;99967.48;;;5.64;74.99
26436;BME280;15351;52.408;16.826;2023-02-01T06:36:34;99968.27;;;5.66;74.89
26436;BME280;15351;52.408;16.826;2023-02-01T06:39:10;99967.83;;;5.67;74.83
26436;BME280;15351;52.408;16.826;2023-02-01T06:42:14;99970.05;;;5.68;74.95
26436;BME280;15351;52.408;16.826;2023-02-01T06:45:05;99971.64;;;5.66;75.01
26436;BME280;15351;52.408;16.826;2023-02-01T06:47:38;99975.31;;;5.64;75.06
26436;BME280;15351;52.408;16.826;2023-02-01T06:50:10;99976.38;;;5.62;75.27
26436;BME280;15351;52.408;16.826;2023-02-01T06:52:43;99979.64;;;5.58;75.54
26436;BME280;15351;52.408;16.826;2023-02-01T06:55:14;99975.47;;;5.55;75.88
26436;BME280;15351;52.408;16.826;2023-02-01T06:58:13;99974.52;;;5.57;75.86
26436;BME280;15351;52.408;16.826;2023-02-01T07:00:44;99978.14;;;5.60;75.92
26436;BME280;15351;52.408;16.826;2023-02-01T07:03:18;99976.49;;;5.62;75.96
26436;BME280;15351;52.408;16.826;2023-02-01T07:05:57;99973.44;;;5.59;75.97
26436;BME280;15351;52.408;16.826;2023-02-01T07:08:58;99978.83;;;5.62;76.00
26436;BME280;15351;52.408;16.826;2023-02-01T07:11:33;99982.38;;;5.59;76.23
26436;BME280;15351;52.408;16.826;2023-02-01T07:17:35;99981.91;;;5.55;76.63
26436;BME280;15351;52.408;16.826;2023-02-01T07:20:22;99987.48;;;5.58;76.97
26436;BME280;15351;52.408;16.826;2023-02-01T07:23:45;99984.51;;;5.58;77.16
26436;BME280;15351;52.408;16.826;2023-02-01T07:26:22;99988.05;;;5.57;77.44
26436;BME280;15351;52.408;16.826;2023-02-01T07:28:49;99991.73;;;5.56;77.40
26436;BME280;15351;52.408;16.826;2023-02-01T07:31:34;99998.98;;;5.59;77.55
26436;BME280;15351;52.408;16.826;2023-02-01T07:34:03;99996.77;;;5.60;77.59
26436;BME280;15351;52.408;16.826;2023-02-01T07:36:31;99995.54;;;5.57;77.71
26436;BME280;15351;52.408;16.826;2023-02-01T07:39:03;99998.82;;;5.57;77.61
26436;BME280;15351;52.408;16.826;2023-02-01T07:41:34;99992.45;;;5.55;77.67
26436;BME280;15351;52.408;16.826;2023-02-01T07:44:35;99999.58;;;5.56;77.84
26436;BME280;15351;52.408;16.826;2023-02-01T07:47:11;99997.55;;;5.59;77.81
26436;BME280;15351;52.408;16.826;2023-02-01T07:50:00;99989.41;;;5.60;77.87
26436;BME280;15351;52.408;16.826;2023-02-01T07:52:28;99994.20;;;5.62;77.88
26436;BME280;15351;52.408;16.826;2023-02-01T07:54:55;99994.33;;;5.66;77.80
26436;BME280;15351;52.408;16.826;2023-02-01T07:57:22;99997.22;;;5.69;77.66
26436;BME280;15351;52.408;16.826;2023-02-01T08:00:15;99995.31;;;5.67;77.50
26436;BME280;15351;52.408;16.826;2023-02-01T08:03:14;99989.34;;;5.68;77.57
26436;BME280;15351;52.408;16.826;2023-02-01T08:05:44;99991.10;;;5.70;77.53
26436;BME280;15351;52.408;16.826;2023-02-01T08:08:32;99988.05;;;5.70;77.40
26436;BME280;15351;52.408;16.826;2023-02-01T08:11:00;99980.71;;;5.72;77.38
26436;BME280;15351;52.408;16.826;2023-02-01T08:13:29;99979.02;;;5.74;77.39
26436;BME280;15351;52.408;16.826;2023-02-01T08:16:03;99978.48;;;5.79;77.24
26436;BME280;15351;52.408;16.826;2023-02-01T08:18:35;99974.48;;;5.82;77.20
26436;BME280;15351;52.408;16.826;2023-02-01T08:21:22;99972.45;;;5.86;77.12
26436;BME280;15351;52.408;16.826;2023-02-01T08:23:51;99969.86;;;5.90;76.92
26436;BME280;15351;52.408;16.826;2023-02-01T08:26:30;99970.20;;;5.92;77.05
26436;BME280;15351;52.408;16.826;2023-02-01T08:29:00;99970.64;;;5.93;76.90
26436;BME280;15351;52.408;16.826;2023-02-01T08:31:31;99968.30;;;5.93;76.91
26436;BME280;15351;52.408;16.826;2023-02-01T08:34:02;99964.66;;;5.94;76.92
26436;BME280;15351;52.408;16.826;2023-02-01T08:36:37;99962.95;;;5.95;76.71
26436;BME280;15351;52.408;16.826;2023-02-01T08:39:06;99960.36;;;5.94;76.67
26436;BME280;15351;52.408;16.826;2023-02-01T08:41:44;99958.02;;;5.91;76.76
26436;BME280;15351;52.408;16.826;2023-02-01T08:44:32;99956.61;;;5.94;76.90
26436;BME280;15351;52.408;16.826;2023-02-01T08:47:00;99955.23;;;5.96;76.63
26436;BME280;15351;52.408;16.826;2023-02-01T08:49:27;99950.45;;;5.96;76.52
26436;BME280;15351;52.408;16.826;2023-02-01T08:51:55;99949.38;;;5.98;76.57
26436;BME280;15351;52.408;16.826;2023-02-01T08:54:23;99958.84;;;6.03;76.40
26436;BME280;15351;52.408;16.826;2023-02-01T08:56:51;99952.92;;;6.04;76.45
26436;BME280;15351;52.408;16.826;2023-02-01T08:59:25;99949.92;;;6.06;76.58
26436;BME280;15351;52.408;16.826;2023-02-01T09:05:28;99948.25;;;6.18;76.36
26436;BME280;15351;52.408;16.826;2023-02-01T09:07:58;99952.48;;;6.20;76.35
26436;BME280;15351;52.408;16.826;2023-02-01T09:10:36;99954.29;;;6.21;76.28
26436;BME280;15351;52.408;16.826;2023-02-01T09:13:53;99961.01;;;6.19;76.17
26436;BME280;15351;52.408;16.826;2023-02-01T09:16:40;99961.83;;;6.13;76.35
26436;BME280;15351;52.408;16.826;2023-02-01T09:19:16;99962.30;;;6.14;76.76
26436;BME280;15351;52.408;16.826;2023-02-01T09:21:52;99960.13;;;6.17;76.92
26436;BME280;15351;52.408;16.826;2023-02-01T09:24:58;99956.27;;;6.23;77.05
26436;BME280;15351;52.408;16.826;2023-02-01T09:27:25;99959.55;;;6.24;76.87
26436;BME280;15351;52.408;16.826;2023-02-01T09:29:53;99951.38;;;6.21;76.93
26436;BME280;15351;52.408;16.826;2023-02-01T09:32:21;99958.47;;;6.21;77.02
26436;BME280;15351;52.408;16.826;2023-02-01T09:34:52;99955.78;;;6.16;77.57
26436;BME280;15351;52.408;16.826;2023-02-01T09:37:19;99961.69;;;6.08;77.99
26436;BME280;15351;52.408;16.826;2023-02-01T09:39:47;99959.54;;;5.95;78.49
26436;BME280;15351;52.408;16.826;2023-02-01T09:47:30;99962.98;;;5.71;79.83
26436;BME280;15351;52.408;16.826;2023-02-01T09:52:36;99956.46;;;5.65;80.43
26436;BME280;15351;52.408;16.826;2023-02-01T09:55:26;99958.76;;;5.62;80.61
26436;BME280;15351;52.408;16.826;2023-02-01T09:58:11;99956.77;;;5.58;80.80
26436;BME280;15351;52.408;16.826;2023-02-01T10:00:52;99950.49;;;5.55;81.10
26436;BME280;15351;52.408;16.826;2023-02-01T10:03:31;99951.12;;;5.53;81.43
26436;BME280;15351;52.408;16.826;2023-02-01T10:09:16;99945.20;;;5.55;82.04
26436;BME280;15351;52.408;16.826;2023-02-01T10:12:13;99939.38;;;5.58;82.23
26436;BME280;15351;52.408;16.826;2023-02-01T10:17:49;99935.91;;;5.53;82.61
26436;BME280;15351;52.408;16.826;2023-02-01T10:20:30;99936.58;;;5.54;83.00
26436;BME280;15351;52.408;16.826;2023-02-01T10:23:21;99931.76;;;5.54;83.18
26436;BME280;15351;52.408;16.826;2023-02-01T10:26:42;99928.51;;;5.57;83.31
26436;BME280;15351;52.408;16.826;2023-02-01T10:29:39;99927.31;;;5.60;83.49
26436;BME280;15351;52.408;16.826;2023-02-01T10:32:34;99923.87;;;5.61;83.68
26436;BME280;15351;52.408;16.826;2023-02-01T10:35:13;99920.10;;;5.61;83.82
26436;BME280;15351;52.408;16.826;2023-02-01T10:38:26;99914.50;;;5.57;83.78
26436;BME280;15351;52.408;16.826;2023-02-01T10:41:03;99912.73;;;5.60;83.96
26436;BME280;15351;52.408;16.826;2023-02-01T10:43:36;99913.51;;;5.61;83.88
26436;BME280;15351;52.408;16.826;2023-02-01T10:46:04;99910.90;;;5.60;84.08
26436;BME280;15351;52.408;16.826;2023-02-01T10:48:56;99910.14;;;5.57;84.10
26436;BME280;15351;52.408;16.826;2023-02-01T10:51:42;99908.10;;;5.55;84.29
26436;BME280;15351;52.408;16.826;2023-02-01T10:54:31;99909.00;;;5.55;84.53
26436;BME280;15351;52.408;16.826;2023-02-01T10:56:58;99905.69;;;5.54;84.76
26436;BME280;15351;52.408;16.826;2023-02-01T10:59:40;99908.23;;;5.54;84.71
26436;BME280;15351;52.408;16.826;2023-02-01T11:02:31;99904.11;;;5.54;84.73
26436;BME280;15351;52.408;16.826;2023-02-01T11:05:07;99906.64;;;5.52;84.80
26436;BME280;15351;52.408;16.826;2023-02-01T11:07:56;99903.64;;;5.53;85.14
26436;BME280;15351;52.408;16.826;2023-02-01T11:10:41;99904.07;;;5.51;85.11
26436;BME280;15351;52.408;16.826;2023-02-01T11:13:50;99900.39;;;5.51;85.11
26436;BME280;15351;52.408;16.826;2023-02-01T11:17:21;99898.68;;;5.58;85.15
26436;BME280;15351;52.408;16.826;2023-02-01T11:23:30;99896.83;;;5.64;85.04
26436;BME280;15351;52.408;16.826;2023-02-01T11:26:35;99894.24;;;5.61;85.06
26436;BME280;15351;52.408;16.826;2023-02-01T11:29:14;99890.36;;;5.62;84.97
26436;BME280;15351;52.408;16.826;2023-02-01T11:31:45;99894.31;;;5.59;85.06
26436;BME280;15351;52.408;16.826;2023-02-01T11:34:53;99891.44;;;5.59;85.14
26436;BME280;15351;52.408;16.826;2023-02-01T11:37:42;99890.12;;;5.56;85.26
26436;BME280;15351;52.408;16.826;2023-02-01T11:43:14;99880.98;;;5.50;85.39
26436;BME280;15351;52.408;16.826;2023-02-01T11:46:00;99877.25;;;5.55;85.53
26436;BME280;15351;52.408;16.826;2023-02-01T11:48:32;99876.66;;;5.59;85.71
26436;BME280;15351;52.408;16.826;2023-02-01T11:51:37;99874.31;;;5.59;85.71
26436;BME280;15351;52.408;16.826;2023-02-01T11:54:25;99874.56;;;5.62;85.69
26436;BME280;15351;52.408;16.826;2023-02-01T12:07:00;99869.05;;;5.84;85.86
26436;BME280;15351;52.408;16.826;2023-02-01T12:13:06;99866.89;;;5.89;85.79
26436;BME280;15351;52.408;16.826;2023-02-01T12:16:01;99864.92;;;5.90;85.71
26436;BME280;15351;52.408;16.826;2023-02-01T12:21:32;99875.34;;;5.98;85.65
26436;BME280;15351;52.408;16.826;2023-02-01T12:24:26;99875.89;;;5.95;85.37
26436;BME280;15351;52.408;16.826;2023-02-01T12:33:10;99871.32;;;6.05;85.20
26436;BME280;15351;52.408;16.826;2023-02-01T12:47:52;99871.66;;;6.25;84.43
26436;BME280;15351;52.408;16.826;2023-02-01T12:50:32;99869.61;;;6.24;84.36
26436;BME280;15351;52.408;16.826;2023-02-01T12:54:03;99864.79;;;6.27;84.26
26436;BME280;15351;52.408;16.826;2023-02-01T12:59:49;99872.64;;;6.38;83.65
26436;BME280;15351;52.408;16.826;2023-02-01T13:02:40;99873.41;;;6.33;83.49
26436;BME280;15351;52.408;16.826;2023-02-01T13:05:44;99872.60;;;6.32;83.52
26436;BME280;15351;52.408;16.826;2023-02-01T13:08:25;99877.25;;;6.31;83.06
26436;BME280;15351;52.408;16.826;2023-02-01T13:11:22;99877.35;;;6.31;83.34
26436;BME280;15351;52.408;16.826;2023-02-01T13:14:19;99871.70;;;6.37;83.26
26436;BME280;15351;52.408;16.826;2023-02-01T13:17:15;99872.95;;;6.40;82.89
26436;BME280;15351;52.408;16.826;2023-02-01T13:25:50;99874.92;;;6.19;82.28
26436;BME280;15351;52.408;16.826;2023-02-01T13:28:48;99875.23;;;6.21;82.61
26436;BME280;15351;52.408;16.826;2023-02-01T13:37:36;99880.25;;;6.18;82.50
26436;BME280;15351;52.408;16.826;2023-02-01T13:43:06;99885.27;;;6.21;82.37
26436;BME280;15351;52.408;16.826;2023-02-01T13:46:07;99882.38;;;6.25;82.48
26436;BME280;15351;52.408;16.826;2023-02-01T13:48:59;99882.31;;;6.30;82.31
26436;BME280;15351;52.408;16.826;2023-02-01T13:51:44;99872.71;;;6.38;82.40
26436;BME280;15351;52.408;16.826;2023-02-01T13:54:34;99872.29;;;6.43;81.76
26436;BME280;15351;52.408;16.826;2023-02-01T13:57:34;99871.27;;;6.44;81.57
26436;BME280;15351;52.408;16.826;2023-02-01T14:04:45;99871.04;;;6.45;81.13
26436;BME280;15351;52.408;16.826;2023-02-01T14:07:21;99876.77;;;6.43;80.48
26436;BME280;15351;52.408;16.826;2023-02-01T14:16:16;99867.19;;;6.35;80.68
26436;BME280;15351;52.408;16.826;2023-02-01T14:18:57;99863.70;;;6.37;80.60
26436;BME280;15351;52.408;16.826;2023-02-01T14:21:31;99867.99;;;6.40;80.46
26436;BME280;15351;52.408;16.826;2023-02-01T14:24:01;99866.75;;;6.40;80.36
26436;BME280;15351;52.408;16.826;2023-02-01T14:26:43;99865.25;;;6.38;80.20
26436;BME280;15351;52.408;16.826;2023-02-01T14:29:39;99869.20;;;6.39;80.29
26436;BME280;15351;52.408;16.826;2023-02-01T14:32:23;99861.49;;;6.42;80.41
26436;BME280;15351;52.408;16.826;2023-02-01T14:35:00;99857.15;;;6.48;80.30
26436;BME280;15351;52.408;16.826;2023-02-01T14:37:31;99852.63;;;6.51;80.00
26436;BME280;15351;52.408;16.826;2023-02-01T14:42:55;99856.73;;;6.48;79.51
26436;BME280;15351;52.408;16.826;2023-02-01T14:45:48;99860.34;;;6.40;79.38
26436;BME280;15351;52.408;16.826;2023-02-01T14:51:17;99846.83;;;6.35;79.11
26436;BME280;15351;52.408;16.826;2023-02-01T14:54:09;99849.33;;;6.28;78.80
26436;BME280;15351;52.408;16.826;2023-02-01T14:56:54;99853.59;;;6.25;79.01
26436;BME280;15351;52.408;16.826;2023-02-01T15:06:12;99857.56;;;6.23;79.10
26436;BME280;15351;52.408;16.826;2023-02-01T15:09:19;99857.36;;;6.16;79.13
26436;BME280;15351;52.408;16.826;2023-02-01T15:17:56;99859.47;;;6.03;79.70
26436;BME280;15351;52.408;16.826;2023-02-01T15:20:30;99860.58;;;6.02;79.87
26436;BME280;15351;52.408;16.826;2023-02-01T15:23:19;99859.80;;;6.04;79.86
26436;BME280;15351;52.408;16.826;2023-02-01T15:25:58;99856.19;;;6.01;79.95
26436;BME280;15351;52.408;16.826;2023-02-01T15:28:27;99856.25;;;6.01;80.04
26436;BME280;15351;52.408;16.826;2023-02-01T15:31:03;99857.59;;;6.02;80.19
26436;BME280;15351;52.408;16.826;2023-02-01T15:33:37;99860.14;;;6.04;80.32
26436;BME280;15351;52.408;16.826;2023-02-01T15:36:16;99864.36;;;6.03;80.38
26436;BME280;15351;52.408;16.826;2023-02-01T15:39:37;99865.10;;;6.03;80.31
26436;BME280;15351;52.408;16.826;2023-02-01T15:42:30;99859.77;;;6.04;80.52
26436;BME280;15351;52.408;16.826;2023-02-01T15:45:00;99856.70;;;6.05;80.52
26436;BME280;15351;52.408;16.826;2023-02-01T15:47:51;99861.98;;;6.02;80.52
26436;BME280;15351;52.408;16.826;2023-02-01T15:56:40;99853.34;;;6.00;80.17
26436;BME280;15351;52.408;16.826;2023-02-01T15:59:21;99857.79;;;5.97;80.27
26436;BME280;15351;52.408;16.826;2023-02-01T16:05:56;99867.39;;;5.94;80.26
26436;BME280;15351;52.408;16.826;2023-02-01T16:09:17;99875.95;;;5.96;80.34
26436;BME280;15351;52.408;16.826;2023-02-01T16:14:25;99875.89;;;5.96;80.10
26436;BME280;15351;52.408;16.826;2023-02-01T16:16:57;99878.98;;;5.94;80.10
26436;BME280;15351;52.408;16.826;2023-02-01T16:19:27;99879.29;;;5.93;80.05
26436;BME280;15351;52.408;16.826;2023-02-01T16:21:56;99869.40;;;5.87;79.96
26436;BME280;15351;52.408;16.826;2023-02-01T16:24:27;99865.20;;;5.81;79.74
26436;BME280;15351;52.408;16.826;2023-02-01T16:26:54;99868.21;;;5.73;79.91
26436;BME280;15351;52.408;16.826;2023-02-01T16:29:33;99866.29;;;5.62;80.05
26436;BME280;15351;52.408;16.826;2023-02-01T16:32:04;99863.11;;;5.57;80.25
26436;BME280;15351;52.408;16.826;2023-02-01T16:34:56;99865.05;;;5.57;80.41
26436;BME280;15351;52.408;16.826;2023-02-01T16:37:30;99862.27;;;5.55;80.56
26436;BME280;15351;52.408;16.826;2023-02-01T16:40:14;99859.35;;;5.52;80.55
26436;BME280;15351;52.408;16.826;2023-02-01T16:42:42;99852.70;;;5.53;80.70